Ireland, Indiana
Current Conditions -  °F | °C
As of 4:15 PM on Saturday 20 Dec 2014 (Local Time) from KHNB Reporting Station
Overcast Overcast  
Wind Chill: 34°   Ceiling: 6500
Heat Index: 34°   Visibility: 9mi
Dew Point: 25°   Wind: 3mph
Humidity: 70%   Direction: 50°NE
Pressure: 30.29"   Gusts: NA
Location:  38.41°N, 87°W
Report Text: KHNB 202215Z AUTO 05003KT 9SM OVC065 01/M04 A3029 RMK AO1
Loading
Personal Weather Stations






























Interactive Weather Map New forecast layout! Learn more

10-Day Weather Forecast

Advertisements
Track Severe Weather on mobile